createdAt,value
2018-05-29T00:01:26.658Z,23.23
2018-05-29T00:03:30.729Z,23.10
2018-05-29T00:05:34.102Z,23.07
2018-05-29T00:07:37.450Z,22.99
2018-05-29T00:09:41.534Z,22.88
2018-05-29T00:11:44.837Z,22.92
2018-05-29T00:13:48.179Z,22.90
2018-05-29T00:15:51.501Z,22.86
2018-05-29T00:17:54.792Z,22.80
2018-05-29T00:19:58.127Z,22.76
2018-05-29T00:22:02.207Z,22.82
2018-05-29T00:24:05.611Z,22.76
2018-05-29T00:26:08.956Z,22.81
2018-05-29T00:28:12.278Z,22.80
2018-05-29T00:30:15.622Z,22.86
2018-05-29T00:32:18.950Z,22.90
2018-05-29T00:34:22.614Z,22.81
2018-05-29T00:36:25.947Z,22.79
2018-05-29T00:38:29.250Z,22.77
2018-05-29T00:40:32.569Z,22.70
2018-05-29T00:42:35.915Z,22.68
2018-05-29T00:44:39.290Z,22.66
2018-05-29T00:46:42.594Z,22.65
2018-05-29T00:48:46.835Z,22.59
2018-05-29T00:50:50.181Z,22.64
2018-05-29T00:52:53.523Z,22.65
2018-05-29T00:55:14.319Z,22.65
2018-05-29T00:57:17.699Z,22.54
2018-05-29T00:59:21.007Z,22.58
2018-05-29T01:01:24.302Z,22.58
2018-05-29T01:03:27.660Z,22.49
2018-05-29T01:05:30.981Z,22.46
2018-05-29T01:07:34.330Z,22.50
2018-05-29T01:09:37.739Z,22.55
2018-05-29T01:11:41.070Z,22.47
2018-05-29T01:13:44.389Z,22.45
2018-05-29T01:15:48.485Z,22.40
2018-05-29T01:17:52.709Z,22.34
2018-05-29T01:19:56.815Z,22.27
2018-05-29T01:22:00.970Z,22.16
2018-05-29T01:24:04.336Z,22.28
2018-05-29T01:26:07.648Z,22.16
2018-05-29T01:28:11.074Z,22.12
2018-05-29T01:30:14.609Z,22.17
2018-05-29T01:32:17.990Z,22.25
2018-05-29T01:34:21.352Z,22.14
2018-05-29T01:36:24.684Z,22.07
2018-05-29T01:38:28.060Z,22.04
2018-05-29T01:40:32.158Z,22.02
2018-05-29T01:42:35.552Z,22.03
2018-05-29T01:44:38.904Z,22.05
2018-05-29T01:46:42.269Z,22.01
2018-05-29T01:48:45.601Z,21.97
2018-05-29T01:50:48.945Z,21.93
2018-05-29T01:52:52.385Z,21.88
2018-05-29T01:54:55.729Z,21.90
2018-05-29T01:56:59.795Z,21.89
2018-05-29T01:59:03.176Z,21.89
2018-05-29T02:01:06.615Z,21.86
2018-05-29T02:03:10.727Z,21.87
2018-05-29T02:05:14.885Z,21.86
2018-05-29T02:07:18.246Z,22.00
2018-05-29T02:09:21.639Z,21.94
2018-05-29T02:11:25.032Z,21.87
2018-05-29T02:13:28.392Z,21.81
2018-05-29T02:15:31.758Z,21.83
2018-05-29T02:17:35.144Z,21.88
2018-05-29T02:19:38.487Z,21.94
2018-05-29T02:21:42.627Z,21.82
2018-05-29T02:23:46.040Z,21.76
2018-05-29T02:25:49.439Z,21.72
2018-05-29T02:27:52.746Z,21.71
2018-05-29T02:29:56.157Z,21.80
2018-05-29T02:31:59.494Z,21.73
2018-05-29T02:34:02.896Z,21.75
2018-05-29T02:36:06.314Z,21.70
2018-05-29T02:38:09.640Z,21.63
2018-05-29T02:40:12.989Z,21.55
2018-05-29T02:42:16.429Z,21.58
2018-05-29T02:44:19.792Z,21.56
2018-05-29T02:46:23.153Z,21.49
2018-05-29T02:48:26.600Z,21.47
2018-05-29T02:50:30.028Z,21.52
2018-05-29T02:52:33.354Z,21.46
2018-05-29T02:54:36.718Z,21.48
2018-05-29T02:56:40.103Z,21.50
2018-05-29T02:58:43.453Z,21.56
2018-05-29T03:00:46.829Z,21.43
2018-05-29T03:02:50.202Z,21.50
2018-05-29T03:04:53.522Z,21.49
2018-05-29T03:06:56.922Z,21.46
2018-05-29T03:09:00.300Z,21.45
2018-05-29T03:11:03.622Z,21.43
2018-05-29T03:13:06.976Z,21.40
2018-05-29T03:15:10.354Z,21.37
2018-05-29T03:17:13.729Z,21.35
2018-05-29T03:19:17.151Z,21.34
2018-05-29T03:21:20.565Z,21.25
2018-05-29T03:23:23.904Z,21.33
2018-05-29T03:25:27.250Z,21.26
2018-05-29T03:27:30.675Z,21.33
2018-05-29T03:29:34.081Z,21.33
2018-05-29T03:31:37.437Z,21.28
2018-05-29T03:33:40.779Z,21.26
2018-05-29T03:35:44.085Z,21.25
2018-05-29T03:37:47.492Z,21.22
2018-05-29T03:39:50.830Z,21.18
2018-05-29T03:41:54.183Z,21.12
2018-05-29T03:43:57.534Z,21.19
2018-05-29T03:46:00.869Z,21.27
2018-05-29T03:48:04.247Z,21.23
2018-05-29T03:50:07.652Z,21.18
2018-05-29T03:52:11.010Z,21.16
2018-05-29T03:54:14.428Z,21.23
2018-05-29T03:56:17.778Z,21.15
2018-05-29T03:58:21.125Z,21.12
2018-05-29T04:00:24.522Z,21.16
2018-05-29T04:02:27.930Z,21.09
2018-05-29T04:04:31.324Z,21.14
2018-05-29T04:06:34.685Z,21.17
2018-05-29T04:08:38.091Z,21.14
2018-05-29T04:10:41.491Z,21.17
2018-05-29T04:12:44.847Z,21.21
2018-05-29T04:14:48.239Z,21.16
2018-05-29T04:16:51.619Z,21.13
2018-05-29T04:18:55.008Z,21.14
2018-05-29T04:20:58.457Z,21.14
2018-05-29T04:23:01.957Z,21.19
2018-05-29T04:25:05.333Z,21.23
2018-05-29T04:27:08.729Z,21.29
2018-05-29T04:29:12.141Z,21.34
2018-05-29T04:31:15.559Z,21.37
2018-05-29T04:33:19.715Z,21.39
2018-05-29T04:35:23.083Z,21.47
2018-05-29T04:37:26.410Z,21.49
2018-05-29T04:39:29.789Z,21.52
2018-05-29T04:41:33.202Z,21.64
2018-05-29T04:43:36.574Z,21.67
2018-05-29T04:45:39.951Z,21.69
2018-05-29T04:47:43.356Z,21.76
2018-05-29T04:49:46.714Z,21.81
2018-05-29T04:51:50.126Z,21.84
2018-05-29T04:53:53.489Z,21.85
2018-05-29T04:55:56.891Z,21.91
2018-05-29T04:58:00.501Z,21.93
2018-05-29T05:00:03.925Z,21.94
2018-05-29T05:02:08.677Z,21.95
2018-05-29T05:04:12.239Z,22.01
2018-05-29T05:06:19.325Z,22.03
2018-05-29T05:08:22.893Z,22.04
2018-05-29T05:10:26.394Z,22.08
2018-05-29T05:12:30.523Z,22.13
2018-05-29T05:14:35.554Z,22.11
2018-05-29T05:16:40.000Z,22.13
2018-05-29T05:18:44.335Z,22.15
2018-05-29T05:20:49.424Z,22.12
2018-05-29T05:22:52.965Z,22.17
2018-05-29T05:24:57.332Z,22.19
2018-05-29T05:27:01.438Z,22.22
2018-05-29T05:29:05.383Z,22.21
2018-05-29T05:31:11.499Z,22.30
2018-05-29T05:33:15.446Z,22.38
2018-05-29T05:35:22.625Z,22.43
2018-05-29T05:37:27.975Z,22.44
2018-05-29T05:39:31.950Z,22.50
2018-05-29T05:41:36.575Z,22.54
2018-05-29T05:43:42.050Z,22.58
2018-05-29T05:45:46.730Z,22.60
2018-05-29T05:47:50.205Z,22.75
2018-05-29T05:49:55.068Z,22.94
2018-05-29T05:51:59.721Z,22.88
2018-05-29T05:54:05.392Z,22.86
2018-05-29T05:56:09.802Z,22.90
2018-05-29T05:58:14.152Z,22.87
2018-05-29T06:00:17.562Z,22.90
2018-05-29T06:02:22.538Z,22.98
2018-05-29T06:04:27.473Z,23.03
2018-05-29T06:06:32.030Z,23.06
2018-05-29T06:08:35.432Z,23.10
2018-05-29T06:10:40.279Z,23.17
2018-05-29T06:12:44.578Z,23.20
2018-05-29T06:14:48.028Z,23.34
2018-05-29T06:16:51.690Z,23.33
2018-05-29T06:18:55.753Z,23.32
2018-05-29T06:21:00.775Z,23.36
2018-05-29T06:23:04.182Z,23.41
2018-05-29T06:25:07.570Z,23.65
2018-05-29T06:27:11.075Z,23.73
2018-05-29T06:29:15.085Z,23.69
2018-05-29T06:31:18.474Z,23.78
2018-05-29T06:33:22.726Z,23.83
2018-05-29T06:35:27.234Z,24.06
2018-05-29T06:37:30.596Z,23.96
2018-05-29T06:39:34.007Z,24.02
2018-05-29T06:41:38.351Z,24.24
2018-05-29T06:43:42.830Z,24.22
2018-05-29T06:45:49.821Z,24.33
2018-05-29T06:47:53.241Z,24.30
2018-05-29T06:49:56.907Z,24.30
2018-05-29T06:52:01.253Z,24.33
2018-05-29T06:54:04.693Z,24.46
2018-05-29T06:56:08.515Z,24.63
2018-05-29T06:58:12.678Z,24.59
2018-05-29T07:00:18.403Z,24.76
2018-05-29T07:02:24.630Z,24.76
2018-05-29T07:04:29.945Z,25.02
2018-05-29T07:06:35.999Z,24.99
2018-05-29T07:08:42.044Z,25.16
2018-05-29T07:10:45.783Z,25.25
2018-05-29T07:12:52.323Z,25.27
2018-05-29T07:14:56.684Z,25.21
2018-05-29T07:17:02.065Z,25.34
2018-05-29T07:19:06.313Z,25.48
2018-05-29T07:21:10.902Z,25.61
2018-05-29T07:23:16.780Z,25.74
2018-05-29T07:25:21.572Z,25.56
2018-05-29T07:27:26.424Z,25.68
2018-05-29T07:29:30.562Z,25.82
2018-05-29T07:31:37.314Z,25.79
2018-05-29T07:33:44.242Z,25.85
2018-05-29T07:35:53.414Z,26.00
2018-05-29T07:37:57.745Z,25.98
2018-05-29T07:40:02.453Z,26.07
2018-05-29T07:42:08.982Z,26.24
2018-05-29T07:44:15.206Z,26.31
2018-05-29T07:46:23.593Z,26.23
2018-05-29T07:48:32.047Z,26.39
2018-05-29T07:50:39.870Z,26.42
2018-05-29T07:52:46.310Z,26.39
2018-05-29T07:54:50.881Z,26.40
2018-05-29T07:56:56.674Z,26.58
2018-05-29T07:59:01.289Z,26.80
2018-05-29T08:01:06.332Z,26.66
2018-05-29T08:03:10.409Z,26.63
2018-05-29T08:05:15.419Z,26.74
2018-05-29T08:07:19.417Z,26.79
2018-05-29T08:09:24.073Z,26.70
2018-05-29T08:11:27.515Z,26.62
2018-05-29T08:13:32.395Z,26.63
2018-05-29T08:15:38.062Z,26.82
2018-05-29T08:17:42.095Z,26.84
2018-05-29T08:19:45.565Z,26.95
2018-05-29T08:21:49.875Z,26.89
2018-05-29T08:23:54.260Z,27.02
2018-05-29T08:26:02.260Z,26.94
2018-05-29T08:28:07.011Z,26.89
2018-05-29T08:30:12.202Z,26.96
2018-05-29T08:32:15.831Z,26.93
2018-05-29T08:34:19.510Z,26.90
2018-05-29T08:36:22.945Z,27.02
2018-05-29T08:38:27.316Z,27.02
2018-05-29T08:40:30.751Z,27.10
2018-05-29T08:42:35.175Z,27.28
2018-05-29T08:44:38.698Z,27.33
2018-05-29T08:46:42.107Z,27.40
2018-05-29T08:48:45.650Z,27.38
2018-05-29T08:50:50.541Z,27.38
2018-05-29T08:52:54.438Z,27.48
2018-05-29T08:54:58.917Z,27.65
2018-05-29T08:57:03.208Z,27.56
2018-05-29T08:59:06.976Z,27.62
2018-05-29T09:01:16.050Z,27.59
2018-05-29T09:03:22.140Z,27.52
2018-05-29T09:05:27.411Z,27.88
2018-05-29T09:07:30.976Z,27.84
2018-05-29T09:09:35.513Z,27.83
2018-05-29T09:11:39.821Z,27.71
2018-05-29T09:13:43.311Z,28.10
2018-05-29T09:15:47.022Z,27.78
2018-05-29T09:17:50.752Z,27.90
2018-05-29T09:19:56.381Z,27.78
2018-05-29T09:21:59.807Z,27.83
2018-05-29T09:24:03.289Z,27.82
2018-05-29T09:26:12.460Z,27.74
2018-05-29T09:28:16.364Z,27.68
2018-05-29T09:30:22.507Z,27.56
2018-05-29T09:32:26.107Z,27.45
2018-05-29T09:34:30.553Z,27.56
2018-05-29T09:36:35.898Z,27.85
2018-05-29T09:38:40.494Z,27.85
2018-05-29T09:40:44.162Z,27.99
2018-05-29T09:42:47.798Z,27.98
2018-05-29T09:44:51.884Z,27.88
2018-05-29T09:46:55.308Z,28.05
2018-05-29T09:49:07.610Z,28.09
2018-05-29T09:51:12.182Z,28.17
2018-05-29T09:53:15.716Z,28.19
2018-05-29T09:55:20.360Z,28.19
2018-05-29T09:57:24.744Z,28.31
2018-05-29T09:59:28.253Z,28.39
2018-05-29T10:01:35.320Z,28.56
2018-05-29T10:03:39.113Z,28.72
2018-05-29T10:05:44.857Z,28.68
2018-05-29T10:07:48.413Z,28.90
2018-05-29T10:09:52.634Z,28.90
2018-05-29T10:11:56.209Z,29.00
2018-05-29T10:14:00.454Z,29.01
2018-05-29T10:16:03.812Z,29.08
2018-05-29T10:18:07.509Z,29.09
2018-05-29T10:20:11.944Z,28.91
2018-05-29T10:22:16.534Z,29.11
2018-05-29T10:24:20.860Z,29.09
2018-05-29T10:26:25.338Z,29.15
2018-05-29T10:28:30.030Z,29.31
2018-05-29T10:30:34.617Z,29.57
2018-05-29T10:32:38.918Z,29.71
2018-05-29T10:34:43.423Z,29.84
2018-05-29T10:36:47.511Z,29.90
2018-05-29T10:38:50.991Z,29.85
2018-05-29T10:40:55.693Z,29.90
2018-05-29T10:42:59.194Z,29.97
2018-05-29T10:45:03.162Z,30.00
2018-05-29T10:47:07.226Z,30.20
2018-05-29T10:49:11.369Z,30.14
2018-05-29T10:51:15.398Z,30.26
2018-05-29T10:53:19.010Z,30.47
2018-05-29T10:55:22.394Z,29.98
2018-05-29T10:57:28.190Z,29.99
2018-05-29T10:59:33.040Z,29.71
2018-05-29T11:01:36.722Z,29.51
2018-05-29T11:03:42.249Z,29.78
2018-05-29T11:05:45.665Z,29.82
2018-05-29T11:07:51.983Z,29.93
2018-05-29T11:09:56.970Z,29.90
2018-05-29T11:12:00.618Z,30.00
2018-05-29T11:14:04.485Z,30.05
2018-05-29T11:16:08.487Z,29.96
2018-05-29T11:18:12.859Z,30.22
2018-05-29T11:20:17.671Z,30.18
2018-05-29T11:22:23.213Z,30.45
2018-05-29T11:24:28.489Z,29.84
2018-05-29T11:26:33.744Z,29.95
2018-05-29T11:28:39.737Z,29.88
2018-05-29T11:30:43.922Z,29.96
2018-05-29T11:32:48.142Z,30.34
2018-05-29T11:34:55.194Z,30.43
2018-05-29T11:36:59.520Z,30.48
2018-05-29T11:39:03.762Z,30.42
2018-05-29T11:41:07.275Z,30.03
2018-05-29T11:43:11.648Z,29.93
2018-05-29T11:45:16.413Z,30.04
2018-05-29T11:47:20.321Z,30.13
2018-05-29T11:49:25.022Z,30.28
2018-05-29T11:51:28.516Z,30.44
2018-05-29T11:53:33.405Z,30.31
2018-05-29T11:55:39.924Z,30.33
2018-05-29T11:57:44.538Z,30.42
2018-05-29T11:59:52.644Z,30.66
2018-05-29T12:01:56.100Z,30.81
2018-05-29T12:04:01.219Z,30.94
2018-05-29T12:06:06.198Z,30.82
2018-05-29T12:08:10.420Z,31.16
2018-05-29T12:10:13.861Z,31.38
2018-05-29T12:12:27.649Z,31.11
2018-05-29T12:14:31.958Z,31.02
2018-05-29T12:16:36.398Z,30.70
2018-05-29T12:18:40.110Z,30.79
2018-05-29T12:20:43.514Z,31.20
2018-05-29T12:22:50.996Z,30.92
2018-05-29T12:24:56.317Z,31.15
2018-05-29T12:27:00.164Z,31.16
2018-05-29T12:29:03.664Z,31.13
2018-05-29T12:31:07.109Z,31.18
2018-05-29T12:33:10.722Z,31.23
2018-05-29T12:35:14.458Z,31.33
2018-05-29T12:37:19.423Z,31.41
2018-05-29T12:39:25.324Z,31.52
2018-05-29T12:41:28.790Z,31.52
2018-05-29T12:43:33.573Z,31.82
2018-05-29T12:45:37.043Z,31.81
2018-05-29T12:47:41.386Z,30.97
2018-05-29T12:49:44.870Z,31.12
2018-05-29T12:51:49.126Z,31.22
2018-05-29T12:53:54.798Z,31.30
2018-05-29T12:56:02.318Z,31.18
2018-05-29T12:58:08.847Z,31.17
2018-05-29T13:00:14.763Z,30.96
2018-05-29T13:02:21.990Z,31.13
2018-05-29T13:04:26.203Z,31.11
2018-05-29T13:06:31.244Z,31.23
2018-05-29T13:08:35.148Z,31.36
2018-05-29T13:10:39.043Z,31.48
2018-05-29T13:12:43.808Z,30.77
2018-05-29T13:14:50.136Z,30.83
2018-05-29T13:16:59.566Z,30.84
2018-05-29T13:19:03.093Z,30.74
2018-05-29T13:21:13.611Z,30.30
2018-05-29T13:23:19.088Z,30.87
2018-05-29T13:25:26.451Z,31.21
2018-05-29T13:27:33.304Z,30.87
2018-05-29T13:29:44.982Z,31.10
2018-05-29T13:31:49.908Z,30.77
2018-05-29T13:33:55.045Z,30.94
2018-05-29T13:36:00.432Z,30.43
2018-05-29T13:38:09.445Z,30.53
2018-05-29T13:40:16.127Z,30.15
2018-05-29T13:42:29.352Z,30.79
2018-05-29T13:44:32.904Z,30.60
2018-05-29T13:46:36.330Z,30.56
2018-05-29T13:48:40.474Z,30.48
2018-05-29T13:50:46.036Z,30.59
2018-05-29T13:52:51.120Z,30.72
2018-05-29T13:54:55.924Z,30.62
2018-05-29T13:57:04.200Z,30.24
2018-05-29T13:59:07.720Z,30.27
2018-05-29T14:01:11.197Z,30.40
2018-05-29T14:03:16.893Z,30.48
2018-05-29T14:05:21.497Z,30.49
2018-05-29T14:07:26.116Z,30.37
2018-05-29T14:09:30.199Z,30.19
2018-05-29T14:11:35.255Z,30.39
2018-05-29T14:13:38.854Z,30.50
2018-05-29T14:15:42.565Z,30.03
2018-05-29T14:17:46.882Z,29.72
2018-05-29T14:19:53.150Z,29.91
2018-05-29T14:21:58.753Z,29.63
2018-05-29T14:26:17.996Z,28.79
2018-05-29T14:28:25.457Z,28.68
2018-05-29T14:30:32.878Z,28.43
2018-05-29T14:32:39.019Z,28.31
2018-05-29T14:34:46.809Z,27.93
2018-05-29T14:37:04.647Z,27.75
2018-05-29T14:39:14.429Z,27.67
2018-05-29T14:41:27.829Z,27.05
2018-05-29T14:43:40.757Z,27.39
2018-05-29T14:48:02.324Z,27.38
2018-05-29T14:50:11.389Z,26.92
2018-05-29T14:52:18.147Z,26.98
2018-05-29T14:54:28.112Z,26.06
2018-05-29T14:58:44.982Z,26.45
2018-05-29T15:08:55.123Z,26.00
2018-05-29T15:11:03.030Z,26.09
2018-05-29T15:13:09.433Z,25.53
2018-05-29T15:15:14.875Z,25.79
2018-05-29T15:17:26.610Z,25.79
2018-05-29T15:19:33.143Z,25.48
2018-05-29T15:21:37.533Z,25.14
2018-05-29T15:23:44.165Z,24.48
2018-05-29T15:25:48.333Z,23.80
2018-05-29T15:27:52.965Z,22.88
2018-05-29T15:29:58.530Z,22.52
2018-05-29T15:32:03.323Z,22.44
2018-05-29T15:34:10.438Z,21.87
2018-05-29T15:36:15.076Z,21.98
2018-05-29T15:38:18.800Z,21.37
2018-05-29T15:42:41.719Z,21.13
2018-05-29T15:44:45.654Z,19.94
2018-05-29T15:46:51.424Z,20.04
2018-05-29T15:48:56.026Z,18.92
2018-05-29T15:51:00.478Z,18.10
2018-05-29T15:53:03.991Z,17.89
2018-05-29T15:55:07.437Z,18.31
2018-05-29T15:57:10.847Z,17.56
2018-05-29T15:59:15.110Z,18.40
2018-05-29T16:01:18.678Z,18.68
2018-05-29T16:03:26.510Z,18.57
2018-05-29T16:05:33.679Z,18.55
2018-05-29T16:07:37.188Z,18.39
2018-05-29T16:09:40.811Z,18.28
2018-05-29T16:11:44.135Z,18.75
2018-05-29T16:13:47.576Z,18.33
2018-05-29T16:15:51.135Z,18.90
2018-05-29T16:17:54.854Z,19.00
2018-05-29T16:19:58.266Z,19.09
2018-05-29T16:22:02.548Z,19.08
2018-05-29T16:24:05.993Z,19.20
2018-05-29T16:26:09.489Z,19.28
2018-05-29T16:28:12.934Z,19.24
2018-05-29T16:30:18.971Z,19.23
2018-05-29T16:32:22.705Z,19.17
2018-05-29T16:34:26.077Z,19.09
2018-05-29T16:36:29.496Z,19.25
2018-05-29T16:38:32.919Z,19.36
2018-05-29T16:40:36.345Z,19.38
2018-05-29T16:42:39.658Z,19.53
2018-05-29T16:44:43.019Z,19.48
2018-05-29T16:46:46.443Z,19.41
2018-05-29T16:48:49.858Z,19.42
2018-05-29T16:50:53.351Z,19.43
2018-05-29T16:52:56.756Z,19.42
2018-05-29T16:55:00.249Z,19.53
2018-05-29T16:57:03.864Z,19.62
2018-05-29T16:59:08.087Z,19.69
2018-05-29T17:01:11.529Z,19.66
2018-05-29T17:03:14.890Z,19.78
2018-05-29T17:05:18.277Z,19.82
2018-05-29T17:07:21.729Z,19.86
2018-05-29T17:09:25.241Z,19.89
2018-05-29T17:11:28.711Z,20.02
2018-05-29T17:13:32.122Z,20.11
2018-05-29T17:15:35.496Z,20.13
2018-05-29T17:17:39.630Z,20.30
2018-05-29T17:19:43.019Z,20.45
2018-05-29T17:21:50.505Z,20.52
2018-05-29T17:23:53.989Z,20.56
2018-05-29T17:26:06.056Z,20.66
2018-05-29T17:28:10.176Z,20.65
2018-05-29T17:30:13.517Z,20.63
2018-05-29T17:32:16.945Z,20.72
2018-05-29T17:34:21.101Z,20.80
2018-05-29T17:36:24.541Z,20.91
2018-05-29T17:38:28.016Z,21.05
2018-05-29T17:40:31.537Z,21.02
2018-05-29T17:42:35.756Z,21.06
2018-05-29T17:44:39.852Z,21.36
2018-05-29T17:46:43.993Z,21.27
2018-05-29T17:48:47.556Z,21.31
2018-05-29T17:50:50.918Z,21.37
2018-05-29T17:52:54.594Z,21.37
2018-05-29T17:54:58.020Z,21.49
2018-05-29T17:57:01.429Z,21.75
2018-05-29T17:59:05.038Z,21.77
2018-05-29T18:01:09.370Z,22.19
2018-05-29T18:03:13.563Z,22.15
2018-05-29T18:05:17.708Z,22.10
2018-05-29T18:07:21.137Z,22.02
2018-05-29T18:09:24.638Z,22.18
2018-05-29T18:11:28.274Z,22.27
2018-05-29T18:13:32.853Z,22.13
2018-05-29T18:15:37.805Z,22.14
2018-05-29T18:17:41.329Z,22.20
2018-05-29T18:19:44.717Z,22.26
2018-05-29T18:21:49.224Z,22.31
2018-05-29T18:23:52.823Z,22.06
2018-05-29T18:25:57.728Z,21.97
2018-05-29T18:28:01.337Z,21.91
2018-05-29T18:30:04.993Z,21.88
2018-05-29T18:32:11.586Z,21.92
2018-05-29T18:34:22.711Z,21.85
2018-05-29T18:36:26.440Z,21.84
2018-05-29T18:38:30.048Z,21.82
2018-05-29T18:40:33.665Z,21.77
2018-05-29T18:42:37.204Z,21.69
2018-05-29T18:44:42.467Z,21.75
2018-05-29T18:46:46.013Z,21.75
2018-05-29T18:48:49.538Z,21.73
2018-05-29T18:50:53.770Z,21.74
2018-05-29T18:52:57.271Z,21.80
2018-05-29T18:55:00.854Z,21.78
2018-05-29T18:57:04.296Z,21.80
2018-05-29T18:59:07.674Z,21.74
2018-05-29T19:01:11.232Z,21.71
2018-05-29T19:03:14.758Z,21.70
2018-05-29T19:05:18.316Z,21.69
2018-05-29T19:07:21.693Z,21.74
2018-05-29T19:09:25.307Z,21.74
2018-05-29T19:11:30.183Z,21.80
2018-05-29T19:13:34.446Z,21.75
2018-05-29T19:15:37.859Z,21.76
2018-05-29T19:17:41.496Z,21.76
2018-05-29T19:19:45.226Z,21.72
2018-05-29T19:21:49.634Z,21.87
2018-05-29T19:23:53.571Z,21.86
2018-05-29T19:25:57.287Z,21.91
2018-05-29T19:28:00.791Z,21.86
2018-05-29T19:30:04.226Z,21.84
2018-05-29T19:32:07.742Z,21.82
2018-05-29T19:34:11.734Z,21.85
2018-05-29T19:36:16.905Z,21.84
2018-05-29T19:38:21.010Z,21.77
2018-05-29T19:40:25.221Z,21.87
2018-05-29T19:42:29.392Z,21.86
2018-05-29T19:44:33.248Z,21.88
2018-05-29T19:46:38.700Z,21.93
2018-05-29T19:48:42.463Z,21.84
2018-05-29T19:50:46.250Z,21.80
2018-05-29T19:52:49.918Z,21.79
2018-05-29T19:54:53.389Z,21.86
2018-05-29T19:56:56.971Z,21.83
2018-05-29T19:59:01.176Z,21.82
2018-05-29T20:01:05.390Z,21.83
2018-05-29T20:03:09.812Z,21.80
2018-05-29T20:05:15.629Z,21.76
2018-05-29T20:07:19.146Z,21.80
2018-05-29T20:09:25.922Z,21.87
2018-05-29T20:11:41.379Z,21.90
2018-05-29T20:24:23.059Z,21.73
2018-05-29T20:26:26.499Z,21.78
2018-05-29T20:28:30.176Z,21.77
2018-05-29T20:30:33.570Z,21.73
2018-05-29T20:32:36.926Z,21.70
2018-05-29T20:34:40.283Z,21.67
2018-05-29T20:36:43.788Z,21.71
2018-05-29T20:38:47.232Z,21.65
2018-05-29T20:40:50.591Z,21.61
2018-05-29T20:42:54.083Z,21.56
2018-05-29T20:44:57.540Z,21.63
2018-05-29T20:47:00.894Z,21.59
2018-05-29T20:49:04.704Z,21.68
2018-05-29T20:51:08.198Z,21.60
2018-05-29T20:53:11.702Z,21.60
2018-05-29T20:55:15.889Z,21.62
2018-05-29T20:57:19.218Z,21.56
2018-05-29T20:59:22.596Z,21.54
2018-05-29T21:01:26.766Z,21.52
2018-05-29T21:03:30.156Z,21.54
2018-05-29T21:05:33.594Z,21.51
2018-05-29T21:07:37.045Z,21.63
2018-05-29T21:09:40.585Z,21.50
2018-05-29T21:11:44.788Z,21.48
2018-05-29T21:13:48.266Z,21.60
2018-05-29T21:15:51.725Z,21.52
2018-05-29T21:17:55.277Z,21.47
2018-05-29T21:19:58.807Z,21.47
2018-05-29T21:22:02.373Z,21.48
2018-05-29T21:24:05.838Z,21.42
2018-05-29T21:26:09.279Z,21.37
2018-05-29T21:28:13.479Z,21.35
2018-05-29T21:30:17.553Z,21.35
2018-05-29T21:32:20.979Z,21.33
2018-05-29T21:34:24.367Z,21.37
2018-05-29T21:36:27.745Z,21.37
2018-05-29T21:38:31.193Z,21.28
2018-05-29T21:40:34.531Z,21.28
2018-05-29T21:42:37.888Z,21.26
2018-05-29T21:44:41.269Z,21.26
2018-05-29T21:46:44.683Z,21.31
2018-05-29T21:48:48.287Z,21.31
2018-05-29T21:50:51.687Z,21.18
2018-05-29T21:52:55.099Z,21.12
2018-05-29T21:54:58.437Z,21.14
2018-05-29T21:57:01.808Z,21.19
2018-05-29T21:59:05.476Z,21.15
2018-05-29T22:01:08.762Z,21.10
2018-05-29T22:03:12.109Z,21.11
2018-05-29T22:05:15.482Z,21.05
2018-05-29T22:07:19.606Z,21.05
2018-05-29T22:09:23.078Z,21.03
2018-05-29T22:11:26.417Z,21.04
2018-05-29T22:13:29.739Z,21.12
2018-05-29T22:15:33.159Z,21.05
2018-05-29T22:17:37.396Z,21.05
2018-05-29T22:19:40.707Z,21.02
2018-05-29T22:21:44.083Z,20.95
2018-05-29T22:23:47.395Z,20.89
2018-05-29T22:25:50.782Z,20.83
2018-05-29T22:27:54.111Z,20.87
2018-05-29T22:29:57.495Z,20.89
2018-05-29T22:32:00.864Z,20.81
2018-05-29T22:34:04.209Z,20.78
2018-05-29T22:36:07.565Z,20.76
2018-05-29T22:38:11.211Z,20.77
2018-05-29T22:40:15.318Z,20.71
2018-05-29T22:42:18.728Z,20.66
2018-05-29T22:44:22.053Z,20.65
2018-05-29T22:46:25.381Z,20.55
2018-05-29T22:48:29.638Z,20.56
2018-05-29T22:50:32.930Z,20.53
2018-05-29T22:52:36.307Z,20.52
2018-05-29T22:54:39.625Z,20.53
2018-05-29T22:56:43.126Z,20.51
2018-05-29T22:58:46.479Z,20.47
2018-05-29T23:00:50.554Z,20.53
2018-05-29T23:02:53.960Z,20.51
2018-05-29T23:04:58.499Z,20.53
2018-05-29T23:07:02.702Z,20.53
2018-05-29T23:09:06.796Z,20.62
2018-05-29T23:11:10.241Z,20.62
2018-05-29T23:13:14.393Z,20.65
2018-05-29T23:15:18.502Z,20.66
2018-05-29T23:17:21.880Z,20.62
2018-05-29T23:19:25.393Z,20.67
2018-05-29T23:21:28.761Z,20.69
2018-05-29T23:23:32.085Z,20.71
2018-05-29T23:25:35.409Z,20.72
2018-05-29T23:27:38.778Z,20.76
2018-05-29T23:29:42.143Z,20.77
2018-05-29T23:31:45.442Z,20.75
2018-05-29T23:33:48.765Z,20.68
2018-05-29T23:35:52.855Z,20.76
2018-05-29T23:37:56.226Z,20.75
2018-05-29T23:40:00.448Z,20.72
2018-05-29T23:42:03.962Z,20.67
2018-05-29T23:44:07.263Z,20.72
2018-05-29T23:46:10.855Z,20.72
2018-05-29T23:48:14.232Z,20.68
2018-05-29T23:50:17.572Z,20.73
2018-05-29T23:52:20.869Z,20.83
2018-05-29T23:54:24.195Z,20.79
2018-05-29T23:56:27.491Z,20.75
2018-05-29T23:58:30.823Z,20.71
